Brighton, Tennessee
Current Conditions -  °F | °C
As of 1:50 PM on Friday 19 Dec 2014 (Local Time) from KNQA Reporting Station
Overcast Overcast  
Wind Chill: 41°   Ceiling: 4100
Heat Index: 45°   Visibility: 10mi
Dew Point: 36°   Wind: 6mph
Humidity: 71%   Direction: 40°NE
Pressure: 30.21"   Gusts: NA
Location:  35.48°N, 89.73°W
Report Text: KNQA 191950Z 04005KT 10SM OVC041 07/02 A3021
Loading
Personal Weather Stations






























Interactive Weather Map New forecast layout! Learn more

10-Day Weather Forecast

Advertisements
Track Severe Weather on mobile